Time;durP1;ratioP1;P1;durP2;ratioP2;P2;SDS_P1;SDS_P2;PMS_P1;PMS_P2;Temp;Humidity;BMP_temperature;BMP_pressure;BME280_temperature;BME280_humidity;BME280_pressure;Samples;Min_cycle;Max_cycle;Signal;HPM_P1;HPM_P2
2023/01/26 00:00:50;;;;;;;;;;;;;;;-1.96;100.00;102525.28;5068008;28;19999;-57
2023/01/26 00:03:15;;;;;;;;;;;;;;;-1.93;100.00;102519.97;5061843;28;19923;-56
2023/01/26 00:05:40;;;;;;;;;;;;;;;-1.92;100.00;102520.81;5067766;28;19974;-57
2023/01/26 00:08:07;;;;;;;;;;;;;;;-1.94;100.00;102512.22;5063087;28;20299;-57
2023/01/26 00:10:33;;;;;;;;;;;;;;;-1.97;100.00;102507.94;5064030;28;19916;-57
2023/01/26 00:12:59;;;;;;;;;;;;;;;-1.99;100.00;102506.31;5062591;28;19920;-57
2023/01/26 00:15:24;;;;;;;;;;;;;;;-2.02;100.00;102499.44;5067922;28;19927;-57
2023/01/26 00:17:50;;;;;;;;;;;;;;;-2.02;100.00;102503.81;5075651;28;19925;-57
2023/01/26 00:20:15;;;;;;;;;;;;;;;-1.99;100.00;102499.34;5064123;28;20007;-57
2023/01/26 00:22:41;;;;;;;;;;;;;;;-1.99;100.00;102498.50;5061921;28;20007;-58
2023/01/26 00:25:06;;;;;;;;;;;;;;;-1.99;100.00;102499.34;5073489;28;19978;-58
2023/01/26 00:27:31;;;;;;;;;;;;;;;-2.00;100.00;102494.19;5073085;28;20385;-57
2023/01/26 00:29:56;;;;;;;;;;;;;;;-2.00;100.00;102492.44;5073465;28;19931;-58
2023/01/26 00:32:22;;;;;;;;;;;;;;;-2.00;100.00;102488.97;5072689;28;20383;-57
2023/01/26 00:34:47;;;;;;;;;;;;;;;-1.98;100.00;102493.25;5061056;28;19987;-57
2023/01/26 00:37:12;;;;;;;;;;;;;;;-1.99;100.00;102481.13;5068359;28;19924;-58
2023/01/26 00:39:37;;;;;;;;;;;;;;;-1.98;100.00;102487.19;5068830;28;20066;-58
2023/01/26 00:42:05;;;;;;;;;;;;;;;-1.97;100.00;102481.06;5062881;28;20015;-58
2023/01/26 00:44:31;;;;;;;;;;;;;;;-1.96;100.00;102477.56;5064636;28;19921;-57
2023/01/26 00:46:56;;;;;;;;;;;;;;;-1.95;100.00;102463.66;5066105;28;20340;-57
2023/01/26 00:49:21;;;;;;;;;;;;;;;-1.94;100.00;102467.94;5069412;28;19912;-56
2023/01/26 00:51:46;;;;;;;;;;;;;;;-1.93;100.00;102467.03;5056213;28;20291;-56
2023/01/26 00:54:12;;;;;;;;;;;;;;;-1.94;100.00;102465.34;5061264;28;19924;-58
2023/01/26 00:56:37;;;;;;;;;;;;;;;-1.95;100.00;102455.84;5063571;28;19995;-57
2023/01/26 00:59:02;;;;;;;;;;;;;;;-1.92;100.00;102455.72;5062383;28;20399;-58
2023/01/26 01:01:28;;;;;;;;;;;;;;;-1.91;100.00;102454.81;5065294;28;20183;-57
2023/01/26 01:03:53;;;;;;;;;;;;;;;-1.94;100.00;102453.19;5066674;28;19924;-58
2023/01/26 01:06:18;;;;;;;;;;;;;;;-1.93;100.00;102456.63;5060889;28;20015;-56
2023/01/26 01:08:43;;;;;;;;;;;;;;;-1.90;100.00;102459.13;5062832;28;20319;-56
2023/01/26 01:11:10;;;;;;;;;;;;;;;-1.84;100.00;102447.66;5064702;28;19928;-56
2023/01/26 01:13:35;;;;;;;;;;;;;;;-1.80;100.00;102446.66;5063599;28;20009;-57
2023/01/26 01:16:03;;;;;;;;;;;;;;;-1.77;100.00;102444.78;5064906;28;19982;-58
2023/01/26 01:18:28;;;;;;;;;;;;;;;-1.78;100.00;102442.25;5070420;28;20387;-58
2023/01/26 01:20:53;;;;;;;;;;;;;;;-1.77;100.00;102452.59;5067651;28;19931;-58
2023/01/26 01:23:19;;;;;;;;;;;;;;;-1.73;100.00;102451.63;5069405;28;20003;-57
2023/01/26 01:25:44;;;;;;;;;;;;;;;-1.69;100.00;102450.59;5070089;28;19923;-57
2023/01/26 01:28:10;;;;;;;;;;;;;;;-1.72;100.00;102455.06;5071368;28;19917;-57
2023/01/26 01:30:36;;;;;;;;;;;;;;;-1.76;100.00;102449.09;5075156;28;19924;-58
2023/01/26 01:33:01;;;;;;;;;;;;;;;-1.74;100.00;102452.50;5073742;28;19922;-57
2023/01/26 01:35:27;;;;;;;;;;;;;;;-1.73;100.00;102450.78;5061300;28;19916;-57
2023/01/26 01:37:52;;;;;;;;;;;;;;;-1.73;100.00;102451.63;5066655;28;20011;-58
2023/01/26 01:40:17;;;;;;;;;;;;;;;-1.76;100.00;102454.31;5064874;28;19924;-58
2023/01/26 01:42:47;;;;;;;;;;;;;;;-1.84;100.00;102440.69;5072836;28;19916;-57
2023/01/26 01:45:24;;;;;;;;;;;;;;;-1.77;100.00;102450.00;5069343;28;20311;-57
2023/01/26 01:47:50;;;;;;;;;;;;;;;-1.78;100.00;102453.50;5069087;28;20511;-58
2023/01/26 01:50:17;;;;;;;;;;;;;;;-1.80;100.00;102446.66;5066256;28;19996;-57
2023/01/26 01:52:42;;;;;;;;;;;;;;;-1.80;100.00;102451.84;5074819;28;19924;-57
2023/01/26 01:55:08;;;;;;;;;;;;;;;-1.79;100.00;102457.00;5066596;28;19917;-56
2023/01/26 01:57:43;;;;;;;;;;;;;;;-1.78;100.00;102450.03;5073555;28;19959;-56
2023/01/26 02:00:10;;;;;;;;;;;;;;;-1.77;100.00;102450.00;5058811;28;19931;-58
2023/01/26 02:02:36;;;;;;;;;;;;;;;-1.73;100.00;102445.56;5065480;28;19946;-58
2023/01/26 02:05:06;;;;;;;;;;;;;;;-1.74;100.00;102441.22;5066797;28;19920;-57
2023/01/26 02:07:31;;;;;;;;;;;;;;;-1.75;100.00;102435.16;5069559;28;19919;-57
2023/01/26 02:12:41;;;;;;;;;;;;;;;-1.70;100.00;102435.88;5064339;28;19926;-57
2023/01/26 02:15:07;;;;;;;;;;;;;;;-1.70;100.00;102435.03;5070246;28;19916;-57
2023/01/26 02:17:32;;;;;;;;;;;;;;;-1.71;100.00;102431.59;5064872;28;19927;-59
2023/01/26 02:20:03;;;;;;;;;;;;;;;-1.70;100.00;102432.44;5076083;28;19916;-56
2023/01/26 02:22:31;;;;;;;;;;;;;;;-1.72;100.00;102419.47;5072649;28;20458;-55
2023/01/26 02:24:58;;;;;;;;;;;;;;;-1.73;100.00;102420.38;5071048;28;19935;-58
2023/01/26 02:27:23;;;;;;;;;;;;;;;-1.72;100.00;102416.88;5069470;28;20315;-57
2023/01/26 02:29:48;;;;;;;;;;;;;;;-1.70;100.00;102429.81;5072469;28;19920;-57
2023/01/26 02:32:13;;;;;;;;;;;;;;;-1.72;100.00;102426.44;5069085;28;19920;-57
2023/01/26 02:34:39;;;;;;;;;;;;;;;-1.71;100.00;102418.56;5071802;28;20061;-58
2023/01/26 02:37:04;;;;;;;;;;;;;;;-1.70;100.00;102414.19;5062821;28;20399;-59
2023/01/26 02:39:52;;;;;;;;;;;;;;;-1.67;100.00;102414.09;5077662;28;19923;-58
2023/01/26 02:45:01;;;;;;;;;;;;;;;-1.65;100.00;102407.94;5056059;28;19946;-58
2023/01/26 02:47:26;;;;;;;;;;;;;;;-1.65;100.00;102410.53;5069875;28;19924;-57
2023/01/26 02:49:51;;;;;;;;;;;;;;;-1.65;100.00;102410.53;5070013;28;19917;-58
2023/01/26 02:52:19;;;;;;;;;;;;;;;-1.65;100.00;102412.28;5065695;28;20466;-57
2023/01/26 02:57:28;;;;;;;;;;;;;;;-1.64;100.00;102409.63;5068510;28;20017;-58
2023/01/26 02:59:53;;;;;;;;;;;;;;;-1.62;100.00;102412.19;5074214;28;19921;-58
2023/01/26 03:02:18;;;;;;;;;;;;;;;-1.60;100.00;102406.00;5070257;28;19960;-57
2023/01/26 03:04:43;;;;;;;;;;;;;;;-1.59;100.00;102412.91;5068534;28;20576;-58
2023/01/26 03:07:09;;;;;;;;;;;;;;;-1.58;100.00;102406.78;5067365;28;19920;-58
2023/01/26 03:09:34;;;;;;;;;;;;;;;-1.57;100.00;102408.50;5063719;28;19959;-57
2023/01/26 03:11:59;;;;;;;;;;;;;;;-1.58;100.00;102406.78;5063820;28;19923;-58
2023/01/26 03:14:25;;;;;;;;;;;;;;;-1.54;100.00;102404.09;5060902;28;19924;-58
2023/01/26 03:16:50;;;;;;;;;;;;;;;-1.52;100.00;102407.47;5077075;28;19978;-57
2023/01/26 03:27:29;;;;;;;;;;;;;;;-1.50;100.00;102410.88;5061332;28;20058;-58
2023/01/26 03:29:55;;;;;;;;;;;;;;;-1.49;100.00;102412.56;5068221;28;19920;-58
2023/01/26 03:32:20;;;;;;;;;;;;;;;-1.48;100.00;102409.06;5065784;28;19916;-58
2023/01/26 03:34:45;;;;;;;;;;;;;;;-1.47;100.00;102406.41;5069872;28;19916;-57
2023/01/26 03:37:10;;;;;;;;;;;;;;;-1.46;100.00;102412.47;5062163;28;20338;-57
2023/01/26 03:58:45;;;;;;;;;;;;;;;-1.31;100.00;102397.13;5061321;28;20331;-58
2023/01/26 04:01:18;;;;;;;;;;;;;;;-1.29;100.00;102402.28;5067115;28;19916;-58
2023/01/26 04:09:12;;;;;;;;;;;;;;;-1.24;100.00;102400.38;5067033;28;19923;-57
2023/01/26 04:11:37;;;;;;;;;;;;;;;-1.21;100.00;102396.78;5066367;28;19924;-57
2023/01/26 04:22:14;;;;;;;;;;;;;;;-1.19;100.00;102398.44;5074035;28;19927;-57
2023/01/26 04:24:39;;;;;;;;;;;;;;;-1.16;100.00;102394.88;5069361;28;19920;-58
2023/01/26 04:27:04;;;;;;;;;;;;;;;-1.13;100.00;102394.78;5067677;28;20293;-58
2023/01/26 04:29:29;;;;;;;;;;;;;;;-1.13;100.00;102398.22;5068326;28;19917;-59
2023/01/26 04:31:54;;;;;;;;;;;;;;;-1.10;100.00;102397.25;5063278;28;20184;-58
2023/01/26 04:34:20;;;;;;;;;;;;;;;-1.08;100.00;102398.91;5069455;28;19916;-57
2023/01/26 04:36:45;;;;;;;;;;;;;;;-1.05;100.00;102397.94;5067279;28;19979;-57
2023/01/26 04:39:11;;;;;;;;;;;;;;;-1.03;100.00;102402.19;5068844;28;19912;-58
2023/01/26 04:41:36;;;;;;;;;;;;;;;-1.00;100.00;102402.06;5067306;28;19995;-59
2023/01/26 04:44:01;;;;;;;;;;;;;;;-0.96;100.00;102405.41;5072724;28;19918;-58
2023/01/26 04:46:27;;;;;;;;;;;;;;;-0.94;100.00;102394.00;5070523;28;19920;-58
2023/01/26 04:48:52;;;;;;;;;;;;;;;-0.91;100.00;102393.03;5064991;28;20440;-57
2023/01/26 04:51:21;;;;;;;;;;;;;;;-0.89;100.00;102387.75;5072806;28;19972;-58
2023/01/26 04:53:47;;;;;;;;;;;;;;;-0.86;100.00;102392.88;5071231;28;20513;-57
2023/01/26 04:56:22;;;;;;;;;;;;;;;-0.86;100.00;102392.88;5077452;28;19974;-57
2023/01/26 04:58:48;;;;;;;;;;;;;;;-0.84;100.00;102396.28;5071473;28;19912;-58
2023/01/26 05:01:13;;;;;;;;;;;;;;;-0.82;100.00;102394.47;5066744;28;19927;-58
2023/01/26 05:03:38;;;;;;;;;;;;;;;-0.81;100.00;102397.00;5064501;28;19928;-58
2023/01/26 05:06:03;;;;;;;;;;;;;;;-0.80;100.00;102393.50;5078130;28;19924;-58
2023/01/26 05:08:28;;;;;;;;;;;;;;;-0.80;100.00;102388.28;5075078;28;19932;-58
2023/01/26 05:10:54;;;;;;;;;;;;;;;-0.79;100.00;102389.13;5081094;28;19916;-58
2023/01/26 05:13:19;;;;;;;;;;;;;;;-0.79;100.00;102394.34;5068255;28;19928;-58
2023/01/26 05:15:45;;;;;;;;;;;;;;;-0.79;100.00;102389.13;5065331;28;20018;-58
2023/01/26 05:18:10;;;;;;;;;;;;;;;-0.79;100.00;102384.75;5074856;28;19916;-58
2023/01/26 05:20:35;;;;;;;;;;;;;;;-0.78;100.00;102390.81;5071117;28;21661;-58
2023/01/26 05:23:01;;;;;;;;;;;;;;;-0.78;100.00;102386.44;5063377;28;19924;-58
2023/01/26 05:25:26;;;;;;;;;;;;;;;-0.76;100.00;102383.78;5065817;28;19920;-58
2023/01/26 05:27:52;;;;;;;;;;;;;;;-0.75;100.00;102390.69;5069369;28;20318;-57
2023/01/26 05:30:17;;;;;;;;;;;;;;;-0.72;100.00;102387.97;5063229;28;20015;-59
2023/01/26 05:32:42;;;;;;;;;;;;;;;-0.71;100.00;102392.28;5068999;28;20012;-59
2023/01/26 05:35:08;;;;;;;;;;;;;;;-0.67;100.00;102392.09;5067905;28;20296;-58
2023/01/26 05:37:33;;;;;;;;;;;;;;;-0.67;100.00;102393.84;5064669;28;19917;-58
2023/01/26 05:39:58;;;;;;;;;;;;;;;-0.66;100.00;102392.94;5081106;28;19916;-58
2023/01/26 05:42:24;;;;;;;;;;;;;;;-0.66;100.00;102388.56;5070004;28;19916;-58
2023/01/26 05:44:49;;;;;;;;;;;;;;;-0.65;100.00;102389.41;5069875;28;20391;-57
2023/01/26 05:47:14;;;;;;;;;;;;;;;-0.64;100.00;102386.75;5082234;28;19952;-57
2023/01/26 05:49:44;;;;;;;;;;;;;;;-0.62;100.00;102391.91;5071265;28;19916;-57
2023/01/26 05:52:11;;;;;;;;;;;;;;;-0.62;100.00;102387.53;5068211;28;19959;-58
2023/01/26 05:54:36;;;;;;;;;;;;;;;-0.61;100.00;102396.22;5060668;28;19920;-58
2023/01/26 05:57:02;;;;;;;;;;;;;;;-0.59;100.00;102385.72;5078401;28;20346;-58
2023/01/26 05:59:27;;;;;;;;;;;;;;;-0.59;100.00;102386.56;5071730;28;19912;-57
2023/01/26 06:01:52;;;;;;;;;;;;;;;-0.57;100.00;102394.34;5064921;28;19923;-58
2023/01/26 06:04:17;;;;;;;;;;;;;;;-0.54;100.00;102396.84;5063072;28;19917;-58
2023/01/26 06:06:43;;;;;;;;;;;;;;;-0.56;100.00;102399.50;5082014;28;19920;-58
2023/01/26 06:09:08;;;;;;;;;;;;;;;-0.56;100.00;102404.72;5068720;28;20384;-58
2023/01/26 06:11:33;;;;;;;;;;;;;;;-0.57;100.00;102403.03;5065761;28;19916;-58
2023/01/26 06:13:58;;;;;;;;;;;;;;;-0.56;100.00;102406.50;5061965;28;20506;-58
2023/01/26 06:16:24;;;;;;;;;;;;;;;-0.56;100.00;102406.50;5068357;28;19916;-59
2023/01/26 06:18:49;;;;;;;;;;;;;;;-0.55;100.00;102406.44;5071582;28;19924;-59
2023/01/26 06:21:14;;;;;;;;;;;;;;;-0.55;100.00;102408.19;5072692;28;19938;-58
2023/01/26 06:23:39;;;;;;;;;;;;;;;-0.56;100.00;102407.34;5080052;28;19920;-58
2023/01/26 06:26:06;;;;;;;;;;;;;;;-0.55;100.00;102411.66;5074887;28;19939;-58
2023/01/26 06:28:31;;;;;;;;;;;;;;;-0.56;100.00;102404.72;5076758;28;19921;-58
2023/01/26 06:31:00;;;;;;;;;;;;;;;-0.56;100.00;102406.50;5065029;28;19923;-59
2023/01/26 06:33:25;;;;;;;;;;;;;;;-0.57;100.00;102408.25;5064499;28;19913;-57
2023/01/26 06:35:51;;;;;;;;;;;;;;;-0.59;100.00;102406.59;5067115;28;19919;-58
2023/01/26 06:38:16;;;;;;;;;;;;;;;-0.57;100.00;102404.78;5062044;28;19917;-58
2023/01/26 06:40:41;;;;;;;;;;;;;;;-0.56;100.00;102416.94;5060576;28;20034;-58
2023/01/26 06:43:06;;;;;;;;;;;;;;;-0.54;100.00;102409.88;5068704;28;20394;-57
2023/01/26 06:45:32;;;;;;;;;;;;;;;-0.54;100.00;102415.09;5069992;28;19916;-57
2023/01/26 06:47:57;;;;;;;;;;;;;;;-0.52;100.00;102415.91;5068009;28;19926;-57
2023/01/26 06:50:24;;;;;;;;;;;;;;;-0.51;100.00;102417.59;5068807;28;19921;-58
2023/01/26 06:52:50;;;;;;;;;;;;;;;-0.50;100.00;102420.13;5073989;28;19921;-57
2023/01/26 06:55:19;;;;;;;;;;;;;;;-0.50;100.00;102417.53;5078289;28;19949;-57
2023/01/26 06:57:44;;;;;;;;;;;;;;;-0.48;100.00;102426.16;5062677;28;20273;-58
2023/01/26 07:00:10;;;;;;;;;;;;;;;-0.46;100.00;102420.88;5057706;28;19974;-58
2023/01/26 07:02:36;;;;;;;;;;;;;;;-0.44;100.00;102426.88;5069368;28;20558;-59
2023/01/26 07:05:01;;;;;;;;;;;;;;;-0.43;100.00;102432.03;5073907;28;20020;-58
2023/01/26 07:07:28;;;;;;;;;;;;;;;-0.41;100.00;102429.34;5067124;28;19939;-58
2023/01/26 07:09:53;;;;;;;;;;;;;;;-0.39;100.00;102425.78;5064543;28;19921;-58
2023/01/26 07:12:18;;;;;;;;;;;;;;;-0.40;100.00;102429.28;5070371;28;19921;-57
2023/01/26 07:14:43;;;;;;;;;;;;;;;-0.39;100.00;102431.00;5064438;28;19967;-57
2023/01/26 07:17:08;;;;;;;;;;;;;;;-0.38;100.00;102432.69;5063002;28;20689;-58
2023/01/26 07:19:34;;;;;;;;;;;;;;;-0.38;100.00;102430.06;5070571;28;19913;-57
2023/01/26 07:21:59;;;;;;;;;;;;;;;-0.37;100.00;102425.72;5059573;28;19920;-58
2023/01/26 07:24:25;;;;;;;;;;;;;;;-0.37;100.00;102423.94;5060580;28;19921;-57
2023/01/26 07:26:50;;;;;;;;;;;;;;;-0.36;100.00;102424.78;5068397;28;19924;-58
2023/01/26 07:29:15;;;;;;;;;;;;;;;-0.36;100.00;102433.47;5078399;28;19920;-58
2023/01/26 07:31:43;;;;;;;;;;;;;;;-0.36;100.00;102427.41;5072081;28;19921;-58
2023/01/26 07:34:08;;;;;;;;;;;;;;;-0.37;100.00;102426.56;5077664;28;20394;-58
2023/01/26 07:36:33;;;;;;;;;;;;;;;-0.37;100.00;102429.16;5065976;28;19917;-57
2023/01/26 07:38:58;;;;;;;;;;;;;;;-0.35;100.00;102434.31;5069464;28;19920;-57
2023/01/26 07:41:23;;;;;;;;;;;;;;;-0.34;100.00;102430.81;5071927;28;20388;-57
2023/01/26 07:43:50;;;;;;;;;;;;;;;-0.35;100.00;102437.78;5068315;28;19920;-58
2023/01/26 07:46:15;;;;;;;;;;;;;;;-0.33;100.00;102438.56;5079132;28;19924;-58
2023/01/26 07:48:41;;;;;;;;;;;;;;;-0.32;100.00;102444.63;5057403;28;19917;-58
2023/01/26 07:51:08;;;;;;;;;;;;;;;-0.32;100.00;102442.88;5068625;28;20391;-59
2023/01/26 07:53:38;;;;;;;;;;;;;;;-0.30;100.00;102448.03;5062354;28;20512;-56
2023/01/26 07:56:07;;;;;;;;;;;;;;;-0.29;100.00;102454.09;5063218;28;19956;-57
2023/01/26 07:58:35;;;;;;;;;;;;;;;-0.27;100.00;102458.38;5057141;28;20383;-57
2023/01/26 08:01:03;;;;;;;;;;;;;;;-0.25;100.00;102459.16;5061952;28;19926;-58
2023/01/26 08:03:28;;;;;;;;;;;;;;;-0.23;100.00;102456.50;5070231;28;19916;-58
2023/01/26 08:05:54;;;;;;;;;;;;;;;-0.19;100.00;102463.28;5062503;28;19920;-58
2023/01/26 08:08:19;;;;;;;;;;;;;;;-0.18;100.00;102460.63;5063934;28;20424;-58
2023/01/26 08:10:44;;;;;;;;;;;;;;;-0.17;100.00;102459.69;5061021;28;20009;-58
2023/01/26 08:13:09;;;;;;;;;;;;;;;-0.15;100.00;102457.03;5075562;28;19924;-59
2023/01/26 08:15:35;;;;;;;;;;;;;;;-0.12;100.00;102459.50;5053286;28;19944;-57
2023/01/26 08:18:02;;;;;;;;;;;;;;;-0.09;100.00;102464.59;5067717;28;19916;-58
2023/01/26 08:20:27;;;;;;;;;;;;;;;-0.06;100.00;102469.69;5066744;28;19912;-58
2023/01/26 08:22:53;;;;;;;;;;;;;;;-0.02;100.00;102466.91;5068749;28;19913;-57
2023/01/26 08:25:18;;;;;;;;;;;;;;;0.02;100.00;102464.19;5063667;28;19917;-58
2023/01/26 08:27:43;;;;;;;;;;;;;;;0.03;100.00;102461.50;5066704;28;20422;-57
2023/01/26 08:30:08;;;;;;;;;;;;;;;0.05;100.00;102457.06;5062316;28;19912;-57
2023/01/26 08:32:33;;;;;;;;;;;;;;;0.09;100.00;102468.25;5069198;28;20582;-58
2023/01/26 08:34:59;;;;;;;;;;;;;;;0.10;100.00;102475.16;5062352;28;20396;-58
2023/01/26 08:37:24;;;;;;;;;;;;;;;0.11;100.00;102476.84;5063179;28;19913;-58
2023/01/26 08:39:49;;;;;;;;;;;;;;;0.11;100.00;102475.09;5062078;28;19962;-56
2023/01/26 08:42:14;;;;;;;;;;;;;;;0.14;100.00;102479.34;5058710;28;20287;-58
2023/01/26 08:44:39;;;;;;;;;;;;;;;0.13;100.00;102470.66;5071301;28;19966;-58
2023/01/26 08:47:04;;;;;;;;;;;;;;;0.14;100.00;102469.75;5066763;28;19939;-59
2023/01/26 08:49:30;;;;;;;;;;;;;;;0.15;100.00;102479.28;5060727;28;19991;-58
2023/01/26 08:51:55;;;;;;;;;;;;;;;0.14;100.00;102467.13;5074992;28;20335;-58
2023/01/26 08:54:20;;;;;;;;;;;;;;;0.15;100.00;102478.44;5072493;28;19946;-57
2023/01/26 08:56:45;;;;;;;;;;;;;;;0.14;100.00;102469.75;5075918;28;19920;-58
2023/01/26 08:59:10;;;;;;;;;;;;;;;0.14;100.00;102469.75;5063798;28;19966;-59
2023/01/26 09:01:36;;;;;;;;;;;;;;;0.14;100.00;102469.75;5064755;28;19916;-58
2023/01/26 09:04:02;;;;;;;;;;;;;;;0.16;100.00;102475.75;5066154;28;19932;-57
2023/01/26 09:06:27;;;;;;;;;;;;;;;0.17;100.00;102482.69;5064382;28;19932;-58
2023/01/26 09:08:52;;;;;;;;;;;;;;;0.16;100.00;102475.75;5075046;28;20000;-58
2023/01/26 09:11:17;;;;;;;;;;;;;;;0.15;100.00;102476.66;5071047;28;20287;-56
2023/01/26 09:13:43;;;;;;;;;;;;;;;0.15;100.00;102481.88;5062417;28;19925;-57
2023/01/26 09:16:14;;;;;;;;;;;;;;;0.14;100.00;102481.97;5057439;28;20094;-57
2023/01/26 09:18:39;;;;;;;;;;;;;;;0.12;100.00;102487.25;5067063;28;19922;-57
2023/01/26 09:21:05;;;;;;;;;;;;;;;0.06;100.00;102471.84;5058567;28;19912;-57
2023/01/26 09:23:32;;;;;;;;;;;;;;;0.14;100.00;102492.41;5064921;28;20429;-58
2023/01/26 09:25:57;;;;;;;;;;;;;;;0.17;100.00;102487.91;5069082;28;19920;-57
2023/01/26 09:28:22;;;;;;;;;;;;;;;0.21;100.00;102489.47;5083163;28;19974;-57
2023/01/26 09:30:47;;;;;;;;;;;;;;;0.26;100.00;102492.72;5059726;28;19913;-58
2023/01/26 09:33:12;;;;;;;;;;;;;;;0.33;100.00;102500.34;5064771;28;19927;-56
2023/01/26 09:35:37;;;;;;;;;;;;;;;0.37;100.00;102500.16;5063494;28;19920;-58
2023/01/26 09:38:03;;;;;;;;;;;;;;;0.43;100.00;102499.03;5080187;28;20374;-57
2023/01/26 09:40:34;;;;;;;;;;;;;;;0.48;100.00;102497.06;5067296;28;19970;-58
2023/01/26 09:43:15;;;;;;;;;;;;;;;0.51;100.00;102495.16;5067523;28;20164;-57
2023/01/26 09:45:45;;;;;;;;;;;;;;;0.55;100.00;102493.28;5078289;28;19924;-58
2023/01/26 09:48:10;;;;;;;;;;;;;;;0.59;100.00;102494.88;5077836;28;20404;-56
2023/01/26 09:50:45;;;;;;;;;;;;;;;0.61;100.00;102499.13;5083850;28;19919;-58
2023/01/26 09:53:20;;;;;;;;;;;;;;;0.66;100.00;102488.47;5064244;28;20549;-58
2023/01/26 09:55:47;;;;;;;;;;;;;;;0.70;100.00;102486.56;5064057;28;19959;-58
2023/01/26 09:58:23;;;;;;;;;;;;;;;0.73;100.00;102489.88;5071462;28;19920;-58
2023/01/26 10:00:51;;;;;;;;;;;;;;;0.76;100.00;102491.50;5074395;28;20442;-58
2023/01/26 10:03:16;;;;;;;;;;;;;;;0.78;100.00;102494.91;5078488;28;19916;-58
2023/01/26 10:06:00;;;;;;;;;;;;;;;0.82;100.00;102488.63;5067092;28;19917;-58
2023/01/26 10:08:25;;;;;;;;;;;;;;;0.81;100.00;102482.53;5071015;28;19912;-58
2023/01/26 10:10:59;;;;;;;;;;;;;;;0.84;100.00;102502.47;5067964;28;20032;-57
2023/01/26 10:13:24;;;;;;;;;;;;;;;0.89;100.00;102498.78;5066393;28;19916;-58
2023/01/26 10:15:52;;;;;;;;;;;;;;;0.97;100.00;102489.72;5065472;28;20344;-57
2023/01/26 10:18:24;;;;;;;;;;;;;;;1.06;100.00;102489.31;5070880;28;19920;-57
2023/01/26 10:20:53;;;;;;;;;;;;;;;1.12;100.00;102489.88;5072959;28;20049;-58
2023/01/26 10:23:24;;;;;;;;;;;;;;;1.18;100.00;102488.78;5083352;28;20391;-57
2023/01/26 10:25:50;;;;;;;;;;;;;;;1.22;100.00;102485.09;5080368;28;19927;-57
2023/01/26 10:28:26;;;;;;;;;;;;;;;1.28;100.00;102490.03;5084313;28;20596;-58
2023/01/26 10:30:51;;;;;;;;;;;;;;;1.38;100.00;102498.31;5063619;28;19966;-57
2023/01/26 10:33:19;;;;;;;;;;;;;;;1.43;100.00;102494.56;5078067;28;19912;-58
2023/01/26 10:35:45;;;;;;;;;;;;;;;1.52;100.00;102503.78;5071514;28;20536;-56
2023/01/26 10:38:29;;;;;;;;;;;;;;;1.59;100.00;102499.94;5068755;28;19921;-58
2023/01/26 10:40:54;;;;;;;;;;;;;;;1.67;100.00;102500.41;5074150;28;19913;-58
2023/01/26 10:43:19;;;;;;;;;;;;;;;1.75;100.00;102494.84;5063210;28;19970;-58
2023/01/26 10:45:46;;;;;;;;;;;;;;;1.84;100.00;102489.16;5074514;28;20006;-58
2023/01/26 10:48:18;;;;;;;;;;;;;;;1.91;100.00;102494.94;5063039;28;19913;-58
2023/01/26 10:50:44;;;;;;;;;;;;;;;2.02;100.00;102495.25;5067872;28;19923;-56
2023/01/26 10:53:27;;;;;;;;;;;;;;;2.14;100.00;102487.66;5077044;28;19912;-58
2023/01/26 10:55:58;;;;;;;;;;;;;;;2.28;100.00;102494.81;5064393;28;19956;-58
2023/01/26 10:58:52;;;;;;;;;;;;;;;2.39;100.00;102491.69;5066788;28;19970;-57
2023/01/26 11:01:21;;;;;;;;;;;;;;;2.51;100.00;102480.56;5063537;28;19924;-57
2023/01/26 11:04:03;;;;;;;;;;;;;;;2.63;100.00;102477.34;5072113;28;19986;-58
2023/01/26 11:06:29;;;;;;;;;;;;;;;2.77;100.00;102473.97;5083411;28;20387;-57
2023/01/26 11:09:07;;;;;;;;;;;;;;;2.88;100.00;102478.66;5076897;28;19913;-58
2023/01/26 11:11:32;;;;;;;;;;;;;;;3.00;100.00;102478.03;5074188;28;19991;-58
2023/01/26 11:14:13;;;;;;;;;;;;;;;3.09;100.00;102481.00;5062778;28;20015;-58
2023/01/26 11:16:40;;;;;;;;;;;;;;;3.20;100.00;102479.59;5075575;28;19916;-58
2023/01/26 11:19:12;;;;;;;;;;;;;;;3.28;100.00;102478.25;5062139;28;20414;-58
2023/01/26 11:21:52;;;;;;;;;;;;;;;3.39;100.00;102477.66;5064415;28;20402;-58
2023/01/26 11:24:39;;;;;;;;;;;;;;;3.47;100.00;102477.22;5063589;28;19923;-59
2023/01/26 11:27:10;;;;;;;;;;;;;;;3.56;100.00;102482.81;5068243;28;19926;-59
2023/01/26 11:30:11;;;;;;;;;;;;;;;3.70;100.00;102482.03;5066314;28;19921;-59
2023/01/26 11:32:45;;;;;;;;;;;;;;;3.86;100.00;102490.78;5015594;28;19914;-58
2023/01/26 11:35:11;;;;;;;;;;;;;;;4.01;100.00;102489.88;5070199;28;19942;-59
2023/01/26 11:37:45;;;;;;;;;;;;;;;4.15;100.00;102488.25;5076276;28;19920;-59
2023/01/26 11:40:17;;;;;;;;;;;;;;;4.27;100.00;102480.50;5076192;28;19926;-59
2023/01/26 11:42:50;;;;;;;;;;;;;;;4.37;100.00;102475.56;5067129;28;19916;-58
2023/01/26 11:45:26;;;;;;;;;;;;;;;4.47;100.00;102470.59;5074216;28;19927;-58
2023/01/26 11:48:07;;;;;;;;;;;;;;;4.56;100.00;102476.16;5070691;28;20345;-59
2023/01/26 11:50:51;;;;;;;;;;;;;;;4.64;100.00;102463.41;5060389;28;20078;-59
2023/01/26 11:53:29;;;;;;;;;;;;;;;4.78;100.00;102464.34;5065130;28;20332;-58
2023/01/26 11:56:17;;;;;;;;;;;;;;;4.89;100.00;102460.09;5068838;28;19920;-58
2023/01/26 11:58:50;;;;;;;;;;;;;;;5.06;100.00;102458.22;5061816;28;19961;-59
2023/01/26 12:01:19;;;;;;;;;;;;;;;5.23;100.00;102463.31;5071274;28;19938;-58
2023/01/26 12:03:46;;;;;;;;;;;;;;;5.39;100.00;102463.16;5071802;28;19963;-59
2023/01/26 12:06:19;;;;;;;;;;;;;;;5.52;100.00;102459.69;5080742;28;20303;-58
2023/01/26 12:08:49;;;;;;;;;;;;;;;5.60;100.00;102460.03;5064087;28;19913;-58
2023/01/26 12:11:24;;;;;;;;;;;;;;;5.68;100.00;102459.53;5073996;28;19924;-58
2023/01/26 12:13:53;;;;;;;;;;;;;;;5.73;100.00;102452.16;5065825;28;19959;-58
2023/01/26 12:16:27;;;;;;;;;;;;;;;5.80;100.00;102448.19;5066433;28;19919;-59
2023/01/26 12:19:08;;;;;;;;;;;;;;;5.87;100.00;102449.47;5059249;28;19920;-58
2023/01/26 12:21:36;;;;;;;;;;;;;;;5.97;100.00;102443.63;5076586;28;19965;-59
2023/01/26 12:24:02;;;;;;;;;;;;;;;6.08;100.00;102441.16;5061706;28;19916;-59
2023/01/26 12:26:31;;;;;;;;;;;;;;;6.17;100.00;102435.25;5072497;28;20386;-58
2023/01/26 12:28:59;;;;;;;;;;;;;;;6.25;100.00;102435.56;5070755;28;19920;-58
2023/01/26 12:31:30;;;;;;;;;;;;;;;6.29;100.00;102426.50;5069201;28;20365;-58
2023/01/26 12:33:56;;;;;;;;;;;;;;;6.31;100.00;102424.59;5068788;28;19924;-57
2023/01/26 12:36:39;;;;;;;;;;;;;;;6.30;100.00;102422.91;5066902;28;20003;-59
2023/01/26 12:39:11;;;;;;;;;;;;;;;6.36;100.00;102413.72;5053852;28;19917;-59
2023/01/26 12:41:53;;;;;;;;;;;;;;;6.48;100.00;102412.91;5073529;28;20425;-59
2023/01/26 12:44:31;;;;;;;;;;;;;;;6.58;100.00;102406.03;5068066;28;19978;-59
2023/01/26 12:47:02;;;;;;;;;;;;;;;6.73;100.00;102404.13;5066381;28;19917;-57
2023/01/26 12:49:31;;;;;;;;;;;;;;;6.85;100.00;102397.97;5064749;28;20452;-57
2023/01/26 12:52:00;;;;;;;;;;;;;;;6.99;100.00;102392.59;5058923;28;19924;-56
2023/01/26 12:54:33;;;;;;;;;;;;;;;7.18;100.00;102394.72;5063982;28;19950;-58
2023/01/26 12:57:00;;;;;;;;;;;;;;;7.40;100.00;102400.16;5066749;28;19935;-58
2023/01/26 12:59:34;;;;;;;;;;;;;;;7.67;100.00;102392.00;5059750;28;19916;-58
2023/01/26 13:02:08;;;;;;;;;;;;;;;7.88;100.00;102400.16;5065955;28;19920;-59
2023/01/26 13:04:33;;;;;;;;;;;;;;;7.91;100.00;102391.97;5065249;28;19917;-58
2023/01/26 13:07:03;;;;;;;;;;;;;;;7.85;100.00;102402.19;5061735;28;20453;-59
2023/01/26 13:09:28;;;;;;;;;;;;;;;7.74;100.00;102401.16;5063100;28;19928;-59
2023/01/26 13:11:58;;;;;;;;;;;;;;;7.65;100.00;102399.22;5052759;28;19923;-58
2023/01/26 13:14:34;;;;;;;;;;;;;;;7.55;100.00;102392.91;5067024;28;19948;-58
2023/01/26 13:17:21;;;;;;;;;;;;;;;7.46;100.00;102390.94;5067396;28;19935;-57
2023/01/26 13:19:46;;;;;;;;;;;;;;;7.49;100.00;102396.00;5073705;28;20047;-55
2023/01/26 13:22:17;;;;;;;;;;;;;;;7.56;100.00;102391.97;5062522;28;19920;-58